sensor_id;sensor_type;location;lat;lon;timestamp;P1;durP1;ratioP1;P2;durP2;ratioP2
11921;SDS011;6021;51.182;3.160;2023-05-10T00:01:15;35.30;;;21.03;;
11921;SDS011;6021;51.182;3.160;2023-05-10T00:03:44;31.50;;;22.43;;
11921;SDS011;6021;51.182;3.160;2023-05-10T00:06:12;28.17;;;20.43;;
11921;SDS011;6021;51.182;3.160;2023-05-10T00:08:40;31.20;;;20.97;;
11921;SDS011;6021;51.182;3.160;2023-05-10T00:11:09;31.50;;;22.43;;
11921;SDS011;6021;51.182;3.160;2023-05-10T00:13:37;34.63;;;23.43;;
11921;SDS011;6021;51.182;3.160;2023-05-10T00:16:05;34.30;;;23.43;;
11921;SDS011;6021;51.182;3.160;2023-05-10T00:18:33;31.00;;;22.07;;
11921;SDS011;6021;51.182;3.160;2023-05-10T00:21:02;35.60;;;25.30;;
11921;SDS011;6021;51.182;3.160;2023-05-10T00:23:30;33.53;;;24.57;;
11921;SDS011;6021;51.182;3.160;2023-05-10T00:25:59;43.07;;;26.90;;
11921;SDS011;6021;51.182;3.160;2023-05-10T00:28:27;35.20;;;25.87;;
11921;SDS011;6021;51.182;3.160;2023-05-10T00:30:56;32.73;;;24.13;;
11921;SDS011;6021;51.182;3.160;2023-05-10T00:33:24;36.87;;;24.57;;
11921;SDS011;6021;51.182;3.160;2023-05-10T00:35:52;32.03;;;24.17;;
11921;SDS011;6021;51.182;3.160;2023-05-10T00:38:21;31.47;;;24.33;;
11921;SDS011;6021;51.182;3.160;2023-05-10T00:40:49;36.23;;;20.73;;
11921;SDS011;6021;51.182;3.160;2023-05-10T00:43:17;39.40;;;25.90;;
11921;SDS011;6021;51.182;3.160;2023-05-10T00:45:46;30.57;;;24.37;;
11921;SDS011;6021;51.182;3.160;2023-05-10T00:48:14;50.13;;;29.17;;
11921;SDS011;6021;51.182;3.160;2023-05-10T00:50:43;40.90;;;28.27;;
11921;SDS011;6021;51.182;3.160;2023-05-10T00:53:11;54.27;;;31.30;;
11921;SDS011;6021;51.182;3.160;2023-05-10T00:55:40;41.73;;;30.60;;
11921;SDS011;6021;51.182;3.160;2023-05-10T00:58:08;43.33;;;31.30;;
11921;SDS011;6021;51.182;3.160;2023-05-10T01:00:37;42.23;;;32.50;;
11921;SDS011;6021;51.182;3.160;2023-05-10T01:08:47;46.80;;;31.50;;
11921;SDS011;6021;51.182;3.160;2023-05-10T01:11:24;42.83;;;30.30;;
11921;SDS011;6021;51.182;3.160;2023-05-10T01:16:30;41.57;;;28.97;;
11921;SDS011;6021;51.182;3.160;2023-05-10T01:19:04;45.70;;;30.77;;
11921;SDS011;6021;51.182;3.160;2023-05-10T01:21:48;41.67;;;27.90;;
11921;SDS011;6021;51.182;3.160;2023-05-10T01:24:36;38.00;;;26.67;;
11921;SDS011;6021;51.182;3.160;2023-05-10T01:30:35;41.27;;;28.30;;
11921;SDS011;6021;51.182;3.160;2023-05-10T01:35:58;36.77;;;25.53;;
11921;SDS011;6021;51.182;3.160;2023-05-10T01:38:50;31.63;;;23.23;;
11921;SDS011;6021;51.182;3.160;2023-05-10T01:46:48;38.40;;;24.50;;
11921;SDS011;6021;51.182;3.160;2023-05-10T01:49:21;34.47;;;23.77;;
11921;SDS011;6021;51.182;3.160;2023-05-10T01:51:50;35.50;;;23.53;;
11921;SDS011;6021;51.182;3.160;2023-05-10T01:57:08;42.93;;;23.17;;
11921;SDS011;6021;51.182;3.160;2023-05-10T01:59:39;26.37;;;20.77;;
11921;SDS011;6021;51.182;3.160;2023-05-10T02:02:12;28.37;;;20.77;;
11921;SDS011;6021;51.182;3.160;2023-05-10T02:04:42;28.43;;;21.63;;
11921;SDS011;6021;51.182;3.160;2023-05-10T02:07:12;32.40;;;22.63;;
11921;SDS011;6021;51.182;3.160;2023-05-10T02:09:45;35.07;;;23.50;;
11921;SDS011;6021;51.182;3.160;2023-05-10T02:12:24;35.03;;;23.33;;
11921;SDS011;6021;51.182;3.160;2023-05-10T02:22:48;30.83;;;22.33;;
11921;SDS011;6021;51.182;3.160;2023-05-10T02:25:20;28.33;;;21.07;;
11921;SDS011;6021;51.182;3.160;2023-05-10T02:27:50;25.63;;;19.67;;
11921;SDS011;6021;51.182;3.160;2023-05-10T02:30:21;23.10;;;19.40;;
11921;SDS011;6021;51.182;3.160;2023-05-10T02:32:50;23.67;;;18.90;;
11921;SDS011;6021;51.182;3.160;2023-05-10T02:35:19;22.73;;;18.60;;
11921;SDS011;6021;51.182;3.160;2023-05-10T02:37:49;22.27;;;18.53;;
11921;SDS011;6021;51.182;3.160;2023-05-10T02:40:18;20.77;;;17.80;;
11921;SDS011;6021;51.182;3.160;2023-05-10T02:42:48;22.40;;;18.07;;
11921;SDS011;6021;51.182;3.160;2023-05-10T02:45:20;25.40;;;19.40;;
11921;SDS011;6021;51.182;3.160;2023-05-10T02:47:50;26.67;;;20.13;;
11921;SDS011;6021;51.182;3.160;2023-05-10T02:50:18;25.33;;;19.50;;
11921;SDS011;6021;51.182;3.160;2023-05-10T02:52:51;27.83;;;20.87;;
11921;SDS011;6021;51.182;3.160;2023-05-10T02:55:25;23.50;;;18.70;;
11921;SDS011;6021;51.182;3.160;2023-05-10T02:57:55;31.07;;;24.57;;
11921;SDS011;6021;51.182;3.160;2023-05-10T03:00:25;30.60;;;22.03;;
11921;SDS011;6021;51.182;3.160;2023-05-10T03:02:54;31.43;;;24.60;;
11921;SDS011;6021;51.182;3.160;2023-05-10T03:05:22;30.07;;;22.70;;
11921;SDS011;6021;51.182;3.160;2023-05-10T03:07:50;28.77;;;22.30;;
11921;SDS011;6021;51.182;3.160;2023-05-10T03:10:21;27.33;;;22.67;;
11921;SDS011;6021;51.182;3.160;2023-05-10T03:12:57;29.90;;;23.97;;
11921;SDS011;6021;51.182;3.160;2023-05-10T03:18:38;26.63;;;22.27;;
11921;SDS011;6021;51.182;3.160;2023-05-10T03:21:13;26.07;;;23.10;;
11921;SDS011;6021;51.182;3.160;2023-05-10T03:26:28;29.70;;;24.13;;
11921;SDS011;6021;51.182;3.160;2023-05-10T03:28:57;27.20;;;23.37;;
11921;SDS011;6021;51.182;3.160;2023-05-10T03:31:26;28.63;;;25.60;;
11921;SDS011;6021;51.182;3.160;2023-05-10T03:33:54;31.53;;;25.27;;
11921;SDS011;6021;51.182;3.160;2023-05-10T03:36:22;31.93;;;25.27;;
11921;SDS011;6021;51.182;3.160;2023-05-10T03:38:51;35.27;;;25.83;;
11921;SDS011;6021;51.182;3.160;2023-05-10T03:41:19;33.30;;;24.77;;
11921;SDS011;6021;51.182;3.160;2023-05-10T03:43:49;30.47;;;23.07;;
11921;SDS011;6021;51.182;3.160;2023-05-10T03:46:17;27.60;;;22.63;;
11921;SDS011;6021;51.182;3.160;2023-05-10T03:48:46;23.10;;;19.80;;
11921;SDS011;6021;51.182;3.160;2023-05-10T03:51:14;26.67;;;20.57;;
11921;SDS011;6021;51.182;3.160;2023-05-10T03:53:43;28.40;;;21.53;;
11921;SDS011;6021;51.182;3.160;2023-05-10T03:56:11;24.93;;;20.67;;
11921;SDS011;6021;51.182;3.160;2023-05-10T03:58:39;26.00;;;20.90;;
11921;SDS011;6021;51.182;3.160;2023-05-10T04:01:08;22.33;;;18.43;;
11921;SDS011;6021;51.182;3.160;2023-05-10T04:03:36;24.77;;;20.63;;
11921;SDS011;6021;51.182;3.160;2023-05-10T04:06:04;23.97;;;19.23;;
11921;SDS011;6021;51.182;3.160;2023-05-10T04:08:34;27.60;;;18.80;;
11921;SDS011;6021;51.182;3.160;2023-05-10T04:11:06;25.90;;;20.03;;
11921;SDS011;6021;51.182;3.160;2023-05-10T04:13:36;22.97;;;18.13;;
11921;SDS011;6021;51.182;3.160;2023-05-10T04:16:04;27.50;;;21.20;;
11921;SDS011;6021;51.182;3.160;2023-05-10T04:18:33;25.07;;;20.23;;
11921;SDS011;6021;51.182;3.160;2023-05-10T04:21:01;22.80;;;19.40;;
11921;SDS011;6021;51.182;3.160;2023-05-10T04:23:30;21.30;;;18.97;;
11921;SDS011;6021;51.182;3.160;2023-05-10T04:26:02;24.37;;;21.73;;
11921;SDS011;6021;51.182;3.160;2023-05-10T04:28:30;24.17;;;21.57;;
11921;SDS011;6021;51.182;3.160;2023-05-10T04:31:04;23.53;;;20.63;;
11921;SDS011;6021;51.182;3.160;2023-05-10T04:33:36;21.53;;;18.37;;
11921;SDS011;6021;51.182;3.160;2023-05-10T04:36:05;23.93;;;20.43;;
11921;SDS011;6021;51.182;3.160;2023-05-10T04:38:33;21.00;;;18.53;;
11921;SDS011;6021;51.182;3.160;2023-05-10T04:41:08;18.90;;;16.90;;
11921;SDS011;6021;51.182;3.160;2023-05-10T04:43:38;21.53;;;19.23;;
11921;SDS011;6021;51.182;3.160;2023-05-10T04:46:06;21.10;;;18.80;;
11921;SDS011;6021;51.182;3.160;2023-05-10T04:48:35;21.20;;;19.00;;
11921;SDS011;6021;51.182;3.160;2023-05-10T04:51:03;23.37;;;20.03;;
11921;SDS011;6021;51.182;3.160;2023-05-10T04:53:32;20.23;;;18.23;;
11921;SDS011;6021;51.182;3.160;2023-05-10T04:56:01;21.50;;;18.80;;
11921;SDS011;6021;51.182;3.160;2023-05-10T04:58:30;19.47;;;17.47;;
11921;SDS011;6021;51.182;3.160;2023-05-10T05:01:04;21.07;;;18.63;;
11921;SDS011;6021;51.182;3.160;2023-05-10T05:03:35;22.87;;;19.57;;
11921;SDS011;6021;51.182;3.160;2023-05-10T05:06:03;23.10;;;20.43;;
11921;SDS011;6021;51.182;3.160;2023-05-10T05:08:32;18.43;;;16.67;;
11921;SDS011;6021;51.182;3.160;2023-05-10T05:11:00;22.37;;;19.90;;
11921;SDS011;6021;51.182;3.160;2023-05-10T05:13:29;21.00;;;18.63;;
11921;SDS011;6021;51.182;3.160;2023-05-10T05:15:59;20.13;;;18.13;;
11921;SDS011;6021;51.182;3.160;2023-05-10T05:18:28;20.37;;;18.17;;
11921;SDS011;6021;51.182;3.160;2023-05-10T05:20:56;22.40;;;19.57;;
11921;SDS011;6021;51.182;3.160;2023-05-10T05:23:25;23.57;;;20.07;;
11921;SDS011;6021;51.182;3.160;2023-05-10T05:25:53;25.97;;;20.30;;
11921;SDS011;6021;51.182;3.160;2023-05-10T05:28:21;20.90;;;18.60;;
11921;SDS011;6021;51.182;3.160;2023-05-10T05:30:50;20.23;;;18.07;;
11921;SDS011;6021;51.182;3.160;2023-05-10T05:33:18;21.03;;;18.93;;
11921;SDS011;6021;51.182;3.160;2023-05-10T05:35:47;24.20;;;20.40;;
11921;SDS011;6021;51.182;3.160;2023-05-10T05:38:17;25.57;;;21.17;;
11921;SDS011;6021;51.182;3.160;2023-05-10T05:40:45;26.83;;;21.10;;
11921;SDS011;6021;51.182;3.160;2023-05-10T05:43:14;22.27;;;19.17;;
11921;SDS011;6021;51.182;3.160;2023-05-10T05:45:42;23.07;;;20.37;;
11921;SDS011;6021;51.182;3.160;2023-05-10T05:48:11;25.27;;;20.90;;
11921;SDS011;6021;51.182;3.160;2023-05-10T05:50:39;21.57;;;18.93;;
11921;SDS011;6021;51.182;3.160;2023-05-10T05:53:07;21.80;;;18.90;;
11921;SDS011;6021;51.182;3.160;2023-05-10T05:55:36;23.13;;;18.90;;
11921;SDS011;6021;51.182;3.160;2023-05-10T05:58:05;23.43;;;20.17;;
11921;SDS011;6021;51.182;3.160;2023-05-10T06:00:33;23.63;;;20.93;;
11921;SDS011;6021;51.182;3.160;2023-05-10T06:03:02;28.73;;;21.63;;
11921;SDS011;6021;51.182;3.160;2023-05-10T06:05:30;29.20;;;21.53;;
11921;SDS011;6021;51.182;3.160;2023-05-10T06:07:59;26.47;;;20.77;;
11921;SDS011;6021;51.182;3.160;2023-05-10T06:10:27;27.63;;;21.13;;
11921;SDS011;6021;51.182;3.160;2023-05-10T06:12:57;24.60;;;20.13;;
11921;SDS011;6021;51.182;3.160;2023-05-10T06:15:25;26.73;;;20.93;;
11921;SDS011;6021;51.182;3.160;2023-05-10T06:17:54;25.33;;;20.30;;
11921;SDS011;6021;51.182;3.160;2023-05-10T06:20:22;22.20;;;18.73;;
11921;SDS011;6021;51.182;3.160;2023-05-10T06:22:51;28.77;;;20.97;;
11921;SDS011;6021;51.182;3.160;2023-05-10T06:25:19;26.27;;;21.10;;
11921;SDS011;6021;51.182;3.160;2023-05-10T06:27:48;20.80;;;18.60;;
11921;SDS011;6021;51.182;3.160;2023-05-10T06:30:16;22.47;;;19.10;;
11921;SDS011;6021;51.182;3.160;2023-05-10T06:32:44;21.17;;;16.87;;
11921;SDS011;6021;51.182;3.160;2023-05-10T06:35:13;26.30;;;19.03;;
11921;SDS011;6021;51.182;3.160;2023-05-10T06:37:41;20.80;;;17.87;;
11921;SDS011;6021;51.182;3.160;2023-05-10T06:40:10;16.60;;;14.80;;
11921;SDS011;6021;51.182;3.160;2023-05-10T06:42:38;18.07;;;14.87;;
11921;SDS011;6021;51.182;3.160;2023-05-10T06:45:07;17.57;;;14.33;;
11921;SDS011;6021;51.182;3.160;2023-05-10T06:47:36;18.90;;;14.10;;
11921;SDS011;6021;51.182;3.160;2023-05-10T06:50:05;17.50;;;15.67;;
11921;SDS011;6021;51.182;3.160;2023-05-10T06:52:34;17.37;;;15.10;;
11921;SDS011;6021;51.182;3.160;2023-05-10T06:55:05;17.53;;;15.53;;
11921;SDS011;6021;51.182;3.160;2023-05-10T06:57:35;16.93;;;15.13;;
11921;SDS011;6021;51.182;3.160;2023-05-10T07:00:03;16.23;;;14.63;;
11921;SDS011;6021;51.182;3.160;2023-05-10T07:02:32;17.37;;;15.57;;
11921;SDS011;6021;51.182;3.160;2023-05-10T07:05:01;16.17;;;14.47;;
11921;SDS011;6021;51.182;3.160;2023-05-10T07:07:29;16.63;;;14.83;;
11921;SDS011;6021;51.182;3.160;2023-05-10T07:09:58;18.33;;;15.47;;
11921;SDS011;6021;51.182;3.160;2023-05-10T07:12:28;17.40;;;15.60;;
11921;SDS011;6021;51.182;3.160;2023-05-10T07:14:58;16.87;;;15.17;;
11921;SDS011;6021;51.182;3.160;2023-05-10T07:17:26;16.27;;;14.57;;
11921;SDS011;6021;51.182;3.160;2023-05-10T07:19:54;15.23;;;13.47;;
11921;SDS011;6021;51.182;3.160;2023-05-10T07:22:23;15.23;;;13.73;;
11921;SDS011;6021;51.182;3.160;2023-05-10T07:24:51;17.63;;;13.80;;
11921;SDS011;6021;51.182;3.160;2023-05-10T07:27:20;17.00;;;12.83;;
11921;SDS011;6021;51.182;3.160;2023-05-10T07:29:48;13.83;;;12.30;;
11921;SDS011;6021;51.182;3.160;2023-05-10T07:32:17;13.60;;;12.20;;
11921;SDS011;6021;51.182;3.160;2023-05-10T07:34:45;13.60;;;12.20;;
11921;SDS011;6021;51.182;3.160;2023-05-10T07:37:14;13.83;;;12.43;;
11921;SDS011;6021;51.182;3.160;2023-05-10T07:39:42;11.97;;;10.83;;
11921;SDS011;6021;51.182;3.160;2023-05-10T07:42:10;11.47;;;10.27;;
11921;SDS011;6021;51.182;3.160;2023-05-10T07:44:39;12.00;;;9.87;;
11921;SDS011;6021;51.182;3.160;2023-05-10T07:47:08;14.30;;;10.83;;
11921;SDS011;6021;51.182;3.160;2023-05-10T07:49:37;16.53;;;11.33;;
11921;SDS011;6021;51.182;3.160;2023-05-10T07:52:05;11.87;;;10.13;;
11921;SDS011;6021;51.182;3.160;2023-05-10T07:54:35;13.43;;;11.63;;
11921;SDS011;6021;51.182;3.160;2023-05-10T07:57:04;13.73;;;12.37;;
11921;SDS011;6021;51.182;3.160;2023-05-10T07:59:32;13.67;;;12.27;;
11921;SDS011;6021;51.182;3.160;2023-05-10T08:02:01;13.30;;;11.90;;
11921;SDS011;6021;51.182;3.160;2023-05-10T08:04:29;12.37;;;11.07;;
11921;SDS011;6021;51.182;3.160;2023-05-10T08:06:58;13.47;;;11.00;;
11921;SDS011;6021;51.182;3.160;2023-05-10T08:09:26;10.93;;;9.83;;
11921;SDS011;6021;51.182;3.160;2023-05-10T08:11:54;12.60;;;10.83;;
11921;SDS011;6021;51.182;3.160;2023-05-10T08:14:23;11.40;;;10.30;;
11921;SDS011;6021;51.182;3.160;2023-05-10T08:16:51;11.60;;;10.40;;
11921;SDS011;6021;51.182;3.160;2023-05-10T08:19:20;10.90;;;9.90;;
11921;SDS011;6021;51.182;3.160;2023-05-10T08:21:49;11.00;;;9.90;;
11921;SDS011;6021;51.182;3.160;2023-05-10T08:24:17;10.73;;;9.63;;
11921;SDS011;6021;51.182;3.160;2023-05-10T08:26:46;12.70;;;7.57;;
11921;SDS011;6021;51.182;3.160;2023-05-10T08:29:14;11.60;;;9.33;;
11921;SDS011;6021;51.182;3.160;2023-05-10T08:31:43;11.70;;;10.50;;
11921;SDS011;6021;51.182;3.160;2023-05-10T08:34:11;12.90;;;11.60;;
11921;SDS011;6021;51.182;3.160;2023-05-10T08:36:40;13.97;;;11.70;;
11921;SDS011;6021;51.182;3.160;2023-05-10T08:39:08;13.93;;;12.47;;
11921;SDS011;6021;51.182;3.160;2023-05-10T08:41:37;16.10;;;14.40;;
11921;SDS011;6021;51.182;3.160;2023-05-10T08:44:08;16.97;;;14.00;;
11921;SDS011;6021;51.182;3.160;2023-05-10T08:46:37;17.00;;;14.13;;
11921;SDS011;6021;51.182;3.160;2023-05-10T08:49:08;17.90;;;14.70;;
11921;SDS011;6021;51.182;3.160;2023-05-10T08:51:40;15.77;;;14.17;;
11921;SDS011;6021;51.182;3.160;2023-05-10T08:54:12;17.57;;;14.70;;
11921;SDS011;6021;51.182;3.160;2023-05-10T08:56:41;15.73;;;13.70;;
11921;SDS011;6021;51.182;3.160;2023-05-10T08:59:09;15.10;;;13.50;;
11921;SDS011;6021;51.182;3.160;2023-05-10T09:01:39;16.53;;;14.03;;
11921;SDS011;6021;51.182;3.160;2023-05-10T09:04:10;21.17;;;14.47;;
11921;SDS011;6021;51.182;3.160;2023-05-10T09:06:38;15.60;;;13.83;;
11921;SDS011;6021;51.182;3.160;2023-05-10T09:09:07;14.47;;;12.60;;
11921;SDS011;6021;51.182;3.160;2023-05-10T09:11:36;13.67;;;12.03;;
11921;SDS011;6021;51.182;3.160;2023-05-10T09:14:04;13.70;;;11.93;;
11921;SDS011;6021;51.182;3.160;2023-05-10T09:16:33;13.00;;;11.03;;
11921;SDS011;6021;51.182;3.160;2023-05-10T09:19:02;11.10;;;8.70;;
11921;SDS011;6021;51.182;3.160;2023-05-10T09:21:30;10.53;;;9.53;;
11921;SDS011;6021;51.182;3.160;2023-05-10T09:24:02;10.70;;;9.20;;
11921;SDS011;6021;51.182;3.160;2023-05-10T09:26:32;10.20;;;8.57;;
11921;SDS011;6021;51.182;3.160;2023-05-10T09:29:02;9.17;;;8.20;;
11921;SDS011;6021;51.182;3.160;2023-05-10T09:31:48;10.43;;;8.90;;
11921;SDS011;6021;51.182;3.160;2023-05-10T09:34:17;9.00;;;8.10;;
11921;SDS011;6021;51.182;3.160;2023-05-10T09:36:57;11.10;;;9.30;;
11921;SDS011;6021;51.182;3.160;2023-05-10T09:39:34;13.67;;;10.00;;
11921;SDS011;6021;51.182;3.160;2023-05-10T09:42:07;12.83;;;10.23;;
11921;SDS011;6021;51.182;3.160;2023-05-10T09:44:36;15.33;;;9.50;;
11921;SDS011;6021;51.182;3.160;2023-05-10T09:47:05;10.20;;;9.20;;
11921;SDS011;6021;51.182;3.160;2023-05-10T09:49:34;10.80;;;8.27;;
11921;SDS011;6021;51.182;3.160;2023-05-10T09:52:07;10.77;;;8.43;;
11921;SDS011;6021;51.182;3.160;2023-05-10T09:54:33;12.27;;;9.17;;
11921;SDS011;6021;51.182;3.160;2023-05-10T09:57:02;11.83;;;9.37;;
11921;SDS011;6021;51.182;3.160;2023-05-10T09:59:32;10.57;;;8.57;;
11921;SDS011;6021;51.182;3.160;2023-05-10T10:02:02;11.23;;;8.70;;
11921;SDS011;6021;51.182;3.160;2023-05-10T10:04:30;12.00;;;9.33;;
11921;SDS011;6021;51.182;3.160;2023-05-10T10:07:03;13.33;;;9.80;;
11921;SDS011;6021;51.182;3.160;2023-05-10T10:09:32;11.00;;;9.23;;
11921;SDS011;6021;51.182;3.160;2023-05-10T10:12:02;13.60;;;9.40;;
11921;SDS011;6021;51.182;3.160;2023-05-10T10:14:31;11.13;;;8.60;;
11921;SDS011;6021;51.182;3.160;2023-05-10T10:17:00;12.67;;;9.20;;
11921;SDS011;6021;51.182;3.160;2023-05-10T10:19:28;14.30;;;9.27;;
11921;SDS011;6021;51.182;3.160;2023-05-10T10:21:59;11.60;;;8.37;;
11921;SDS011;6021;51.182;3.160;2023-05-10T10:24:28;11.87;;;9.23;;
11921;SDS011;6021;51.182;3.160;2023-05-10T10:26:59;11.10;;;8.07;;
11921;SDS011;6021;51.182;3.160;2023-05-10T10:29:36;9.67;;;7.97;;
11921;SDS011;6021;51.182;3.160;2023-05-10T10:32:19;15.67;;;8.90;;
11921;SDS011;6021;51.182;3.160;2023-05-10T10:35:01;15.17;;;7.70;;
11921;SDS011;6021;51.182;3.160;2023-05-10T10:37:46;13.00;;;8.27;;
11921;SDS011;6021;51.182;3.160;2023-05-10T10:40:26;10.93;;;7.63;;
11921;SDS011;6021;51.182;3.160;2023-05-10T10:48:48;11.77;;;7.97;;
11921;SDS011;6021;51.182;3.160;2023-05-10T10:51:38;12.93;;;9.07;;
11921;SDS011;6021;51.182;3.160;2023-05-10T10:54:10;14.77;;;8.80;;
11921;SDS011;6021;51.182;3.160;2023-05-10T10:56:43;14.37;;;7.67;;
11921;SDS011;6021;51.182;3.160;2023-05-10T10:59:18;9.13;;;7.23;;
11921;SDS011;6021;51.182;3.160;2023-05-10T11:01:45;10.50;;;6.80;;
11921;SDS011;6021;51.182;3.160;2023-05-10T11:04:17;9.97;;;5.90;;
11921;SDS011;6021;51.182;3.160;2023-05-10T11:06:46;11.70;;;6.47;;
11921;SDS011;6021;51.182;3.160;2023-05-10T11:09:15;12.93;;;6.10;;
11921;SDS011;6021;51.182;3.160;2023-05-10T11:11:54;16.50;;;6.57;;
11921;SDS011;6021;51.182;3.160;2023-05-10T11:14:28;12.53;;;7.50;;
11921;SDS011;6021;51.182;3.160;2023-05-10T11:16:59;16.17;;;7.37;;
11921;SDS011;6021;51.182;3.160;2023-05-10T11:19:32;14.13;;;6.97;;
11921;SDS011;6021;51.182;3.160;2023-05-10T11:24:40;15.17;;;7.10;;
11921;SDS011;6021;51.182;3.160;2023-05-10T11:27:11;16.03;;;7.53;;
11921;SDS011;6021;51.182;3.160;2023-05-10T11:29:43;12.73;;;5.63;;
11921;SDS011;6021;51.182;3.160;2023-05-10T11:32:11;12.03;;;6.77;;
11921;SDS011;6021;51.182;3.160;2023-05-10T11:34:42;15.90;;;7.00;;
11921;SDS011;6021;51.182;3.160;2023-05-10T11:37:29;13.40;;;7.57;;
11921;SDS011;6021;51.182;3.160;2023-05-10T11:40:10;11.03;;;5.93;;
11921;SDS011;6021;51.182;3.160;2023-05-10T11:42:46;11.30;;;5.80;;
11921;SDS011;6021;51.182;3.160;2023-05-10T11:45:18;12.80;;;6.00;;
11921;SDS011;6021;51.182;3.160;2023-05-10T11:47:56;10.50;;;5.80;;
11921;SDS011;6021;51.182;3.160;2023-05-10T11:50:25;18.53;;;5.90;;
11921;SDS011;6021;51.182;3.160;2023-05-10T11:53:00;13.37;;;6.47;;
11921;SDS011;6021;51.182;3.160;2023-05-10T11:55:32;17.00;;;6.87;;
11921;SDS011;6021;51.182;3.160;2023-05-10T11:58:02;16.00;;;6.57;;
11921;SDS011;6021;51.182;3.160;2023-05-10T12:00:34;13.83;;;6.90;;
11921;SDS011;6021;51.182;3.160;2023-05-10T12:03:06;15.33;;;6.37;;
11921;SDS011;6021;51.182;3.160;2023-05-10T12:05:40;14.67;;;6.03;;
11921;SDS011;6021;51.182;3.160;2023-05-10T12:08:22;15.77;;;6.00;;
11921;SDS011;6021;51.182;3.160;2023-05-10T12:10:53;13.53;;;6.17;;
11921;SDS011;6021;51.182;3.160;2023-05-10T12:13:23;11.70;;;5.90;;
11921;SDS011;6021;51.182;3.160;2023-05-10T12:15:53;13.60;;;5.67;;
11921;SDS011;6021;51.182;3.160;2023-05-10T12:18:27;15.97;;;6.00;;
11921;SDS011;6021;51.182;3.160;2023-05-10T12:21:02;14.70;;;7.27;;
11921;SDS011;6021;51.182;3.160;2023-05-10T12:23:31;12.10;;;6.60;;
11921;SDS011;6021;51.182;3.160;2023-05-10T12:26:03;14.00;;;6.57;;
11921;SDS011;6021;51.182;3.160;2023-05-10T12:28:32;13.47;;;6.40;;
11921;SDS011;6021;51.182;3.160;2023-05-10T12:31:01;13.60;;;6.10;;
11921;SDS011;6021;51.182;3.160;2023-05-10T12:33:35;14.27;;;5.77;;
11921;SDS011;6021;51.182;3.160;2023-05-10T12:36:16;10.93;;;5.40;;
11921;SDS011;6021;51.182;3.160;2023-05-10T12:38:42;12.13;;;5.60;;
11921;SDS011;6021;51.182;3.160;2023-05-10T12:41:15;11.40;;;5.40;;
11921;SDS011;6021;51.182;3.160;2023-05-10T12:43:44;12.17;;;5.30;;
11921;SDS011;6021;51.182;3.160;2023-05-10T12:46:17;10.97;;;5.00;;
11921;SDS011;6021;51.182;3.160;2023-05-10T12:48:47;9.57;;;3.90;;
11921;SDS011;6021;51.182;3.160;2023-05-10T12:51:17;12.30;;;5.07;;
11921;SDS011;6021;51.182;3.160;2023-05-10T12:53:47;9.13;;;4.03;;
11921;SDS011;6021;51.182;3.160;2023-05-10T12:56:23;9.63;;;3.80;;
11921;SDS011;6021;51.182;3.160;2023-05-10T12:58:55;10.23;;;4.60;;
11921;SDS011;6021;51.182;3.160;2023-05-10T13:01:26;11.60;;;4.70;;
11921;SDS011;6021;51.182;3.160;2023-05-10T13:03:55;9.03;;;4.50;;
11921;SDS011;6021;51.182;3.160;2023-05-10T13:06:28;11.27;;;4.10;;
11921;SDS011;6021;51.182;3.160;2023-05-10T13:08:58;10.67;;;4.87;;
11921;SDS011;6021;51.182;3.160;2023-05-10T13:11:32;12.07;;;4.57;;
11921;SDS011;6021;51.182;3.160;2023-05-10T13:14:01;11.10;;;4.10;;
11921;SDS011;6021;51.182;3.160;2023-05-10T13:16:32;11.93;;;3.80;;
11921;SDS011;6021;51.182;3.160;2023-05-10T13:19:02;12.13;;;4.07;;
11921;SDS011;6021;51.182;3.160;2023-05-10T13:21:35;9.87;;;3.80;;
11921;SDS011;6021;51.182;3.160;2023-05-10T13:24:13;10.50;;;4.13;;
11921;SDS011;6021;51.182;3.160;2023-05-10T13:26:50;14.47;;;4.90;;
11921;SDS011;6021;51.182;3.160;2023-05-10T13:29:28;11.67;;;4.20;;
11921;SDS011;6021;51.182;3.160;2023-05-10T13:32:03;11.30;;;3.83;;
11921;SDS011;6021;51.182;3.160;2023-05-10T13:34:31;9.70;;;3.90;;
11921;SDS011;6021;51.182;3.160;2023-05-10T13:37:05;11.10;;;4.80;;
11921;SDS011;6021;51.182;3.160;2023-05-10T13:39:41;10.13;;;4.67;;
11921;SDS011;6021;51.182;3.160;2023-05-10T13:44:50;9.57;;;3.83;;
11921;SDS011;6021;51.182;3.160;2023-05-10T13:47:22;8.83;;;3.60;;
11921;SDS011;6021;51.182;3.160;2023-05-10T13:49:54;9.53;;;4.00;;
11921;SDS011;6021;51.182;3.160;2023-05-10T13:52:23;9.47;;;3.10;;
11921;SDS011;6021;51.182;3.160;2023-05-10T13:54:53;10.23;;;3.77;;
11921;SDS011;6021;51.182;3.160;2023-05-10T13:57:30;8.10;;;3.57;;
11921;SDS011;6021;51.182;3.160;2023-05-10T13:59:53;12.70;;;4.40;;
11921;SDS011;6021;51.182;3.160;2023-05-10T14:02:21;9.20;;;4.23;;
11921;SDS011;6021;51.182;3.160;2023-05-10T14:04:57;10.53;;;4.30;;
11921;SDS011;6021;51.182;3.160;2023-05-10T14:07:24;12.40;;;3.73;;
11921;SDS011;6021;51.182;3.160;2023-05-10T14:09:55;11.13;;;3.90;;
11921;SDS011;6021;51.182;3.160;2023-05-10T14:12:28;9.97;;;3.63;;
11921;SDS011;6021;51.182;3.160;2023-05-10T14:14:56;9.70;;;3.80;;
11921;SDS011;6021;51.182;3.160;2023-05-10T14:17:26;6.23;;;3.40;;
11921;SDS011;6021;51.182;3.160;2023-05-10T14:20:03;10.27;;;3.40;;
11921;SDS011;6021;51.182;3.160;2023-05-10T14:22:30;7.80;;;3.13;;
11921;SDS011;6021;51.182;3.160;2023-05-10T14:24:58;8.27;;;3.47;;
11921;SDS011;6021;51.182;3.160;2023-05-10T14:27:27;8.07;;;2.90;;
11921;SDS011;6021;51.182;3.160;2023-05-10T14:30:00;6.33;;;3.13;;
11921;SDS011;6021;51.182;3.160;2023-05-10T14:32:30;13.67;;;3.43;;
11921;SDS011;6021;51.182;3.160;2023-05-10T14:37:37;6.40;;;2.67;;
11921;SDS011;6021;51.182;3.160;2023-05-10T14:40:16;8.50;;;3.00;;
11921;SDS011;6021;51.182;3.160;2023-05-10T14:42:46;10.80;;;3.13;;
11921;SDS011;6021;51.182;3.160;2023-05-10T14:45:18;9.27;;;3.13;;
11921;SDS011;6021;51.182;3.160;2023-05-10T14:47:52;8.63;;;3.20;;
11921;SDS011;6021;51.182;3.160;2023-05-10T14:50:30;9.23;;;2.97;;
11921;SDS011;6021;51.182;3.160;2023-05-10T14:53:01;9.60;;;2.80;;
11921;SDS011;6021;51.182;3.160;2023-05-10T14:55:32;7.97;;;2.90;;
11921;SDS011;6021;51.182;3.160;2023-05-10T14:58:02;8.47;;;2.87;;
11921;SDS011;6021;51.182;3.160;2023-05-10T15:00:40;7.27;;;2.93;;
11921;SDS011;6021;51.182;3.160;2023-05-10T15:03:28;9.00;;;3.50;;
11921;SDS011;6021;51.182;3.160;2023-05-10T15:05:59;9.93;;;3.47;;
11921;SDS011;6021;51.182;3.160;2023-05-10T15:08:32;8.63;;;3.27;;
11921;SDS011;6021;51.182;3.160;2023-05-10T15:11:05;11.90;;;3.60;;
11921;SDS011;6021;51.182;3.160;2023-05-10T15:13:38;10.13;;;3.67;;
11921;SDS011;6021;51.182;3.160;2023-05-10T15:16:13;10.00;;;3.53;;
11921;SDS011;6021;51.182;3.160;2023-05-10T15:18:48;8.53;;;4.03;;
11921;SDS011;6021;51.182;3.160;2023-05-10T15:21:18;11.90;;;4.37;;
11921;SDS011;6021;51.182;3.160;2023-05-10T15:23:48;11.80;;;4.50;;
11921;SDS011;6021;51.182;3.160;2023-05-10T15:26:17;6.70;;;3.17;;
11921;SDS011;6021;51.182;3.160;2023-05-10T15:28:49;10.13;;;4.00;;
11921;SDS011;6021;51.182;3.160;2023-05-10T15:31:21;11.00;;;3.83;;
11921;SDS011;6021;51.182;3.160;2023-05-10T15:33:49;9.27;;;3.27;;
11921;SDS011;6021;51.182;3.160;2023-05-10T15:36:18;7.73;;;3.90;;
11921;SDS011;6021;51.182;3.160;2023-05-10T15:38:46;8.77;;;3.30;;
11921;SDS011;6021;51.182;3.160;2023-05-10T15:41:18;9.20;;;3.63;;
11921;SDS011;6021;51.182;3.160;2023-05-10T15:46:42;8.77;;;3.40;;
11921;SDS011;6021;51.182;3.160;2023-05-10T15:49:20;9.40;;;4.07;;
11921;SDS011;6021;51.182;3.160;2023-05-10T15:51:52;7.43;;;3.77;;
11921;SDS011;6021;51.182;3.160;2023-05-10T15:54:21;8.40;;;3.40;;
11921;SDS011;6021;51.182;3.160;2023-05-10T15:56:52;6.40;;;3.50;;